Evanston Uinta County Burns Field
KEVW : now visible

Airfield :











YOU CAN JOIN US ON...

 
LOGIN :

Register | Disclaimer

   EN    FR    IT 

 









Legend :    VFR   Marginal VFR   IFR   Intensive IFR   Very Intensive IFR
Visi :
Ceiling :
>= 8 km
>= 3000ft
5 to 8 km
1000 to 3000 ft
1500m to 5 km
500 to 1000 ft
800 to 1500m
200 to 500 ft
< 800m
< 200 ft
Symbols :   Thunderstorms  Fog  Heavy snow  Heavy precipitations  Wind > 20 kt






- Airport Elevation : 7143 ft


KEVW - Evanston Uinta County Burns Field

CURRENT METAR :
  • 291336Z AUTO 33003KT 4SM -SN BR OVC038 M05/M07 A3010 RMK AO2 SNB00 P0000 T10501067

EXPIRED METARs :
  • 291314Z AUTO 36003KT 2SM -SN BR FEW011 OVC034 M04/M07 A3009 RMK AO2 SNB00 P0000 T10441067
  • 291253Z AUTO 36003KT 7SM OVC033 M04/M06 A3009 RMK AO2 SNE22 SLP205 P0000 T10441061
  • 291228Z AUTO 07003KT 6SM BR FEW004 OVC034 M06/M07 A3008 RMK AO2 SNE22 P0000 T10561072
  • 291157Z AUTO 33005KT 3SM -SN BR SCT026 OVC034 M04/M06 A3007 RMK AO2 P0000 T10391056
  • 291126Z AUTO 31003KT 1SM -SN BR FEW014 OVC022 M04/M06 A3006 RMK AO2 P0000 T10391056
  • 291118Z AUTO 31004KT 1 3/4SM -SN BR SCT014 OVC028 M04/M06 A3006 RMK AO2 P0000 T10391056
  • 291053Z AUTO 32003KT 2 1/2SM -SN BR OVC026 M04/M06 A3006 RMK AO2 SNB22 SLP192 P0000 T10391061
  • 291037Z AUTO 00000KT 1 1/4SM -SN OVC026 M04/M07 A3006 RMK AO2 SNB22 P0000 T10441072

TAF KEVW
Valid from the 29 at 13:00 until the 30 at 12:00 UTC


291252Z 2913/3012 VRB04KT P6SM FEW004 BKN035
TEMPO 2913/2914 4SM -SN BR BKN020
FM291400 22009KT P6SM -SHSN SCT020 BKN030
FM291800 28006KT P6SM VCSH SCT020 OVC030
FM300300 24007KT P6SM SCT020 BKN030



MET'MAP, your aeronautical weather chart ! - Copyright ORBIFLY December 2007 - Disclaimer

ORBIFLY MET'MAP TEAM :

Programming & Development : Alexandra Zaïnal
Concept & original design : Baudouin d'Aumeries
Assistance for programming : Marc-Olivier Méhu
Technical & hardware support : Manuel Goepfert

Contact : metmap@orbifly.com




SOURCES & CREDITS :

   NOAA       Earth
Advisory